< < Back
Terminal Aerodrome Forecast


Current Version              Previous Versions:   1  2  3  4  5  6  7  8  9  

Terminal Aerodrome Forecast

049
FTUS42 KGSP 271132
TAFAND
TAF
KAND 271132Z 2712/2812 23003KT P6SM SKC
     FM271600 24007KT P6SM SCT060 SCT100
     FM280300 23003KT P6SM SCT045
     FM281100 24003KT P6SM SCT150=



Latest METAR

805
SAUS70 KWBC 271500 RRC
MTRAND
METAR KAND 271456Z AUTO 24007KT 10SM CLR 32/22 A3005 RMK AO2 SLP163
T03170217 58001


USA.gov is the U.S. government's official web portal to all federal, state and local government web resources and services.